createdAt,value
2022-08-05T00:00:16.107Z,3.95
2022-08-05T00:02:44.083Z,3.40
2022-08-05T00:06:01.594Z,3.30
2022-08-05T00:08:32.794Z,3.90
2022-08-05T00:10:56.199Z,3.40
2022-08-05T00:13:38.391Z,3.70
2022-08-05T00:16:08.434Z,3.33
2022-08-05T00:18:36.216Z,3.80
2022-08-05T00:21:06.899Z,3.50
2022-08-05T00:23:46.044Z,3.67
2022-08-05T00:26:20.630Z,3.70
2022-08-05T00:28:47.238Z,4.45
2022-08-05T00:31:16.028Z,3.67
2022-08-05T00:34:56.351Z,4.03
2022-08-05T00:37:09.017Z,3.55
2022-08-05T00:39:16.845Z,3.20
2022-08-05T00:41:51.838Z,3.85
2022-08-05T00:44:23.195Z,3.40
2022-08-05T00:47:04.056Z,3.58
2022-08-05T00:49:44.699Z,3.58
2022-08-05T00:52:17.923Z,3.63
2022-08-05T00:54:44.450Z,3.95
2022-08-05T00:57:11.069Z,3.33
2022-08-05T00:59:44.389Z,3.50
2022-08-05T01:02:11.352Z,2.90
2022-08-05T01:04:37.971Z,3.38
2022-08-05T01:07:08.943Z,6.03
2022-08-05T01:09:41.790Z,6.18
2022-08-05T01:12:18.195Z,5.13
2022-08-05T01:14:54.414Z,4.68
2022-08-05T01:17:31.835Z,3.55
2022-08-05T01:20:09.723Z,4.45
2022-08-05T01:22:59.541Z,3.92
2022-08-05T01:26:02.034Z,3.40
2022-08-05T01:28:39.365Z,3.28
2022-08-05T01:31:18.177Z,3.08
2022-08-05T01:34:05.372Z,2.88
2022-08-05T01:36:42.302Z,2.95
2022-08-05T01:39:15.818Z,3.00
2022-08-05T01:42:03.392Z,2.85
2022-08-05T01:44:34.195Z,3.10
2022-08-05T01:47:02.488Z,2.70
2022-08-05T01:50:00.092Z,2.70
2022-08-05T01:52:21.039Z,3.40
2022-08-05T01:54:58.848Z,2.72
2022-08-05T01:58:09.880Z,3.58
2022-08-05T02:00:19.810Z,2.63
2022-08-05T02:02:55.058Z,2.65
2022-08-05T02:05:24.934Z,3.08
2022-08-05T02:08:00.101Z,3.22
2022-08-05T02:10:34.696Z,3.25
2022-08-05T02:13:16.902Z,2.63
2022-08-05T02:15:47.546Z,2.50
2022-08-05T02:18:37.339Z,2.88
2022-08-05T02:21:21.904Z,3.13
2022-08-05T02:23:50.642Z,2.90
2022-08-05T02:26:22.300Z,2.80
2022-08-05T02:28:50.104Z,2.80
2022-08-05T02:31:24.527Z,2.70
2022-08-05T02:33:59.921Z,2.88
2022-08-05T02:36:27.920Z,2.65
2022-08-05T02:39:00.436Z,2.70
2022-08-05T02:41:28.604Z,3.03
2022-08-05T02:44:11.897Z,2.50
2022-08-05T02:46:43.877Z,2.67
2022-08-05T02:49:21.940Z,2.90
2022-08-05T02:52:02.967Z,2.90
2022-08-05T02:54:34.496Z,3.00
2022-08-05T02:57:10.266Z,2.95
2022-08-05T02:59:52.119Z,3.20
2022-08-05T03:02:20.742Z,3.33
2022-08-05T03:04:53.348Z,3.55
2022-08-05T03:08:00.073Z,3.00
2022-08-05T03:10:08.382Z,3.13
2022-08-05T03:12:37.315Z,2.78
2022-08-05T03:15:06.724Z,2.83
2022-08-05T03:17:41.695Z,2.97
2022-08-05T03:20:10.258Z,3.03
2022-08-05T03:22:37.095Z,3.55
2022-08-05T03:25:31.984Z,2.97
2022-08-05T03:27:59.401Z,3.17
2022-08-05T03:30:33.508Z,3.75
2022-08-05T03:33:04.021Z,2.92
2022-08-05T03:35:33.804Z,3.28
2022-08-05T03:38:01.129Z,3.20
2022-08-05T03:40:31.834Z,3.78
2022-08-05T03:43:15.959Z,3.25
2022-08-05T03:45:57.201Z,2.80
2022-08-05T03:48:26.641Z,3.17
2022-08-05T03:52:48.980Z,3.33
2022-08-05T03:55:51.688Z,3.60
2022-08-05T03:56:46.671Z,2.72
2022-08-05T03:59:29.148Z,3.33
2022-08-05T04:02:15.016Z,3.42
2022-08-05T04:04:44.898Z,3.00
2022-08-05T04:07:11.727Z,3.00
2022-08-05T04:09:53.434Z,3.30
2022-08-05T04:12:23.730Z,3.60
2022-08-05T04:14:51.507Z,3.15
2022-08-05T04:17:18.155Z,3.10
2022-08-05T04:19:46.753Z,3.17
2022-08-05T04:22:21.338Z,3.05
2022-08-05T04:24:52.603Z,3.00
2022-08-05T04:27:42.206Z,2.85
2022-08-05T04:30:08.720Z,3.88
2022-08-05T04:32:35.780Z,3.20
2022-08-05T04:35:03.950Z,2.65
2022-08-05T04:38:02.038Z,3.53
2022-08-05T04:40:19.786Z,3.25
2022-08-05T04:42:46.557Z,3.65
2022-08-05T04:45:23.058Z,3.13
2022-08-05T04:48:18.556Z,3.38
2022-08-05T04:51:03.365Z,3.40
2022-08-05T04:53:38.781Z,3.17
2022-08-05T04:56:33.837Z,3.35
2022-08-05T04:58:55.933Z,3.20
2022-08-05T05:01:33.465Z,3.35
2022-08-05T05:04:09.575Z,3.85
2022-08-05T05:06:44.521Z,3.72
2022-08-05T05:09:17.318Z,3.28
2022-08-05T05:11:54.571Z,3.58
2022-08-05T05:14:31.664Z,4.45
2022-08-05T05:17:03.298Z,3.55
2022-08-05T05:19:37.272Z,3.60
2022-08-05T05:22:23.406Z,4.55
2022-08-05T05:24:57.263Z,4.38
2022-08-05T05:27:25.247Z,4.38
2022-08-05T05:30:15.589Z,4.85
2022-08-05T05:32:56.092Z,4.70
2022-08-05T05:35:22.987Z,4.15
2022-08-05T05:38:00.285Z,4.28
2022-08-05T05:40:29.428Z,5.03
2022-08-05T05:42:56.790Z,4.80
2022-08-05T05:45:24.677Z,4.32
2022-08-05T05:48:06.724Z,4.80
2022-08-05T05:50:44.108Z,4.07
2022-08-05T05:53:22.571Z,4.28
2022-08-05T05:55:51.812Z,4.05
2022-08-05T05:58:31.681Z,3.90
2022-08-05T06:01:12.189Z,3.97
2022-08-05T06:03:53.659Z,4.57
2022-08-05T06:06:30.843Z,3.63
2022-08-05T06:08:58.598Z,3.40
2022-08-05T06:11:25.992Z,3.80
2022-08-05T06:13:54.265Z,3.70
2022-08-05T06:16:30.495Z,3.28
2022-08-05T06:19:01.087Z,3.20
2022-08-05T06:21:36.889Z,3.28
2022-08-05T06:24:11.813Z,3.10
2022-08-05T06:26:52.061Z,3.55
2022-08-05T06:29:25.221Z,2.97
2022-08-05T06:32:21.183Z,2.75
2022-08-05T06:34:53.482Z,3.10
2022-08-05T06:37:39.402Z,3.15
2022-08-05T06:40:07.748Z,3.15
2022-08-05T06:42:34.298Z,3.15
2022-08-05T06:45:06.457Z,3.05
2022-08-05T06:48:46.945Z,3.20
2022-08-05T06:50:21.967Z,2.83
2022-08-05T06:53:03.986Z,3.40
2022-08-05T06:55:36.412Z,3.33
2022-08-05T06:58:19.780Z,3.15
2022-08-05T07:00:47.175Z,2.95
2022-08-05T07:03:14.064Z,3.13
2022-08-05T07:05:43.520Z,2.80
2022-08-05T07:08:12.899Z,3.20
2022-08-05T07:10:52.345Z,2.72
2022-08-05T07:13:56.823Z,3.13
2022-08-05T07:17:56.846Z,2.60
2022-08-05T07:22:17.025Z,3.35
2022-08-05T07:24:43.763Z,3.25
2022-08-05T07:27:10.669Z,3.10
2022-08-05T07:30:28.132Z,2.97
2022-08-05T07:32:24.286Z,2.75
2022-08-05T07:34:57.947Z,3.08
2022-08-05T07:37:25.473Z,3.63
2022-08-05T07:40:26.706Z,3.65
2022-08-05T07:42:50.112Z,2.88
2022-08-05T07:45:16.676Z,3.00
2022-08-05T07:47:58.323Z,2.60
2022-08-05T07:50:29.015Z,2.80
2022-08-05T07:53:00.125Z,3.33
2022-08-05T07:56:05.184Z,3.53
2022-08-05T07:58:55.012Z,2.30
2022-08-05T08:01:00.108Z,2.35
2022-08-05T08:03:44.249Z,2.42
2022-08-05T08:06:11.485Z,2.80
2022-08-05T08:08:38.018Z,2.50
2022-08-05T08:11:04.565Z,2.80
2022-08-05T08:13:49.264Z,2.20
2022-08-05T08:16:49.977Z,2.40
2022-08-05T08:19:08.557Z,1.90
2022-08-05T08:21:55.130Z,2.35
2022-08-05T08:24:21.728Z,2.45
2022-08-05T08:27:08.364Z,1.85
2022-08-05T08:30:05.680Z,1.70
2022-08-05T08:32:27.885Z,2.38
2022-08-05T08:34:54.885Z,2.22
2022-08-05T08:37:28.024Z,2.30
2022-08-05T08:41:51.255Z,3.85
2022-08-05T08:45:23.125Z,2.33
2022-08-05T08:47:34.590Z,2.03
2022-08-05T08:50:05.937Z,2.00
2022-08-05T08:52:42.218Z,2.03
2022-08-05T08:55:14.236Z,1.83
2022-08-05T08:57:58.377Z,2.05
2022-08-05T09:00:25.582Z,2.00
2022-08-05T09:02:54.291Z,1.63
2022-08-05T09:05:38.733Z,2.05
2022-08-05T09:08:09.719Z,2.05
2022-08-05T09:10:36.538Z,1.75
2022-08-05T09:13:07.002Z,1.70
2022-08-05T09:15:37.190Z,1.52
2022-08-05T09:18:07.212Z,2.22
2022-08-05T09:20:38.083Z,2.00
2022-08-05T09:23:18.553Z,1.85
2022-08-05T09:26:01.097Z,1.92
2022-08-05T09:28:32.182Z,1.85
2022-08-05T09:31:18.166Z,1.90
2022-08-05T09:33:56.626Z,1.98
2022-08-05T09:36:27.566Z,2.17
2022-08-05T09:39:16.567Z,1.95
2022-08-05T09:42:04.644Z,2.00
2022-08-05T09:44:42.915Z,1.90
2022-08-05T09:47:12.660Z,1.98
2022-08-05T09:50:00.460Z,1.95
2022-08-05T09:52:35.723Z,1.80
2022-08-05T09:55:58.238Z,10.23
2022-08-05T09:57:54.539Z,2.63
2022-08-05T10:00:25.817Z,1.73
2022-08-05T10:02:58.677Z,2.15
2022-08-05T10:05:29.685Z,3.75
2022-08-05T10:08:35.289Z,2.65
2022-08-05T10:10:54.564Z,1.95
2022-08-05T10:13:45.593Z,1.75
2022-08-05T10:16:41.655Z,2.22
2022-08-05T10:19:11.642Z,2.05
2022-08-05T10:21:40.433Z,1.83
2022-08-05T10:24:12.972Z,1.77
2022-08-05T10:29:24.128Z,1.92
2022-08-05T10:32:53.682Z,1.85
2022-08-05T10:34:58.189Z,1.92
2022-08-05T10:37:41.347Z,1.83
2022-08-05T10:40:20.392Z,1.95
2022-08-05T10:42:58.801Z,1.63
2022-08-05T10:45:39.778Z,1.88
2022-08-05T10:48:56.604Z,1.63
2022-08-05T10:51:28.946Z,2.03
2022-08-05T10:54:00.838Z,1.80
2022-08-05T10:56:45.637Z,1.63
2022-08-05T11:00:03.740Z,1.77
2022-08-05T11:02:14.521Z,2.07
2022-08-05T11:04:57.886Z,1.85
2022-08-05T11:07:33.074Z,2.17
2022-08-05T11:10:22.291Z,1.85
2022-08-05T11:12:55.903Z,2.08
2022-08-05T11:16:00.325Z,1.65
2022-08-05T11:18:25.774Z,2.05
2022-08-05T11:20:52.844Z,1.75
2022-08-05T11:24:03.948Z,1.83
2022-08-05T11:26:32.539Z,1.90
2022-08-05T11:29:06.868Z,1.75
2022-08-05T11:31:58.661Z,1.70
2022-08-05T11:34:52.215Z,2.17
2022-08-05T11:38:29.464Z,1.95
2022-08-05T11:41:14.153Z,2.20
2022-08-05T11:44:11.490Z,1.40
2022-08-05T11:47:09.829Z,2.08
2022-08-05T11:49:39.340Z,1.85
2022-08-05T11:52:11.761Z,2.10
2022-08-05T11:54:40.465Z,1.92
2022-08-05T11:57:25.287Z,1.85
2022-08-05T11:59:54.968Z,1.55
2022-08-05T12:02:30.047Z,2.00
2022-08-05T12:05:06.968Z,1.52
2022-08-05T12:08:08.420Z,2.15
2022-08-05T12:10:38.530Z,2.38
2022-08-05T12:13:28.130Z,2.10
2022-08-05T12:16:14.141Z,2.53
2022-08-05T12:18:42.652Z,1.80
2022-08-05T12:21:18.154Z,1.85
2022-08-05T12:24:32.635Z,1.98
2022-08-05T12:27:01.124Z,2.10
2022-08-05T12:29:38.750Z,1.92
2022-08-05T12:32:07.539Z,2.10
2022-08-05T12:34:37.445Z,1.77
2022-08-05T12:37:10.921Z,2.17
2022-08-05T12:39:51.382Z,1.75
2022-08-05T12:42:20.370Z,1.80
2022-08-05T12:44:47.509Z,2.22
2022-08-05T12:47:25.463Z,1.98
2022-08-05T12:50:03.753Z,2.05
2022-08-05T12:52:39.081Z,2.15
2022-08-05T12:55:25.070Z,2.00
2022-08-05T12:58:49.607Z,1.88
2022-08-05T13:02:02.434Z,1.88
2022-08-05T13:03:35.180Z,2.15
2022-08-05T13:06:11.610Z,1.80
2022-08-05T13:08:38.751Z,2.00
2022-08-05T13:11:07.812Z,2.00
2022-08-05T13:14:06.053Z,2.30
2022-08-05T13:16:24.947Z,1.83
2022-08-05T13:18:57.663Z,2.10
2022-08-05T13:21:27.691Z,2.05
2022-08-05T13:23:55.603Z,1.88
2022-08-05T13:26:27.209Z,1.80
2022-08-05T13:28:57.140Z,2.15
2022-08-05T13:31:34.125Z,1.90
2022-08-05T13:34:24.713Z,2.05
2022-08-05T13:36:52.747Z,1.98
2022-08-05T13:39:24.554Z,2.25
2022-08-05T13:42:06.748Z,2.17
2022-08-05T13:44:34.747Z,2.20
2022-08-05T13:47:08.670Z,2.10
2022-08-05T13:49:35.588Z,2.00
2022-08-05T13:52:13.340Z,2.22
2022-08-05T13:54:40.559Z,2.10
2022-08-05T13:57:09.537Z,2.17
2022-08-05T13:59:37.320Z,2.17
2022-08-05T14:02:26.489Z,2.38
2022-08-05T14:05:11.488Z,1.90
2022-08-05T14:08:00.389Z,2.30
2022-08-05T14:10:28.793Z,1.63
2022-08-05T14:12:57.221Z,1.90
2022-08-05T14:16:05.640Z,2.08
2022-08-05T14:18:14.961Z,2.20
2022-08-05T14:20:46.973Z,2.17
2022-08-05T14:23:23.822Z,1.85
2022-08-05T14:25:58.090Z,1.92
2022-08-05T14:28:28.970Z,2.47
2022-08-05T14:30:56.880Z,1.80
2022-08-05T14:33:24.228Z,2.33
2022-08-05T14:35:52.291Z,2.28
2022-08-05T14:38:32.426Z,2.00
2022-08-05T14:41:01.363Z,1.98
2022-08-05T14:43:59.342Z,2.08
2022-08-05T14:46:14.633Z,2.13
2022-08-05T14:48:41.433Z,2.03
2022-08-05T14:51:08.359Z,2.65
2022-08-05T14:53:44.154Z,2.47
2022-08-05T14:56:11.862Z,2.38
2022-08-05T14:58:47.914Z,2.45
2022-08-05T15:01:24.494Z,2.63
2022-08-05T15:04:09.938Z,3.13
2022-08-05T15:06:38.806Z,2.70
2022-08-05T15:09:07.211Z,2.83
2022-08-05T15:11:51.292Z,2.80
2022-08-05T15:14:35.115Z,3.20
2022-08-05T15:17:04.786Z,3.35
2022-08-05T15:19:32.027Z,3.08
2022-08-05T15:22:01.060Z,2.58
2022-08-05T15:24:28.384Z,3.05
2022-08-05T15:26:55.827Z,2.92
2022-08-05T15:29:22.814Z,2.97
2022-08-05T15:31:52.940Z,4.80
2022-08-05T15:34:32.938Z,10.57
2022-08-05T15:37:06.268Z,6.03
2022-08-05T15:40:58.219Z,5.15
2022-08-05T15:42:53.630Z,4.75
2022-08-05T15:45:14.755Z,4.20
2022-08-05T15:47:42.595Z,5.00
2022-08-05T15:50:15.472Z,4.47
2022-08-05T15:52:53.029Z,4.38
2022-08-05T15:55:24.691Z,3.35
2022-08-05T15:57:52.073Z,3.40
2022-08-05T16:00:26.278Z,3.55
2022-08-05T16:02:59.814Z,3.47
2022-08-05T16:05:28.437Z,3.60
2022-08-05T16:07:55.198Z,3.13
2022-08-05T16:10:25.622Z,3.25
2022-08-05T16:12:53.761Z,3.10
2022-08-05T16:15:23.521Z,3.03
2022-08-05T16:17:58.086Z,2.70
2022-08-05T16:20:28.974Z,2.63
2022-08-05T16:22:59.593Z,2.80
2022-08-05T16:25:33.828Z,3.10
2022-08-05T16:28:10.299Z,2.97
2022-08-05T16:30:37.914Z,2.85
2022-08-05T16:33:07.960Z,3.40
2022-08-05T16:35:42.173Z,2.63
2022-08-05T16:38:23.769Z,3.20
2022-08-05T16:41:00.858Z,3.47
2022-08-05T16:43:31.951Z,3.10
2022-08-05T16:46:05.057Z,3.38
2022-08-05T16:48:41.002Z,3.65
2022-08-05T16:51:12.621Z,3.20
2022-08-05T16:56:36.525Z,3.40
2022-08-05T16:59:21.192Z,3.13
2022-08-05T17:01:54.997Z,3.30
2022-08-05T17:04:27.980Z,3.20
2022-08-05T17:07:01.709Z,3.22
2022-08-05T17:09:38.930Z,3.20
2022-08-05T17:12:18.374Z,2.80
2022-08-05T17:14:50.340Z,2.60
2022-08-05T17:17:20.337Z,3.97
2022-08-05T17:19:55.450Z,2.70
2022-08-05T17:22:26.047Z,3.15
2022-08-05T17:25:02.169Z,2.90
2022-08-05T17:27:38.075Z,3.20
2022-08-05T17:30:19.017Z,2.72
2022-08-05T17:33:01.686Z,2.70
2022-08-05T17:35:32.616Z,2.80
2022-08-05T17:38:18.850Z,3.25
2022-08-05T17:40:47.945Z,3.05
2022-08-05T17:43:46.562Z,3.00
2022-08-05T17:46:07.112Z,2.92
2022-08-05T17:48:39.712Z,3.20
2022-08-05T17:51:12.381Z,3.08
2022-08-05T17:53:42.672Z,3.78
2022-08-05T17:56:17.279Z,2.95
2022-08-05T17:58:45.204Z,3.20
2022-08-05T18:01:15.664Z,4.00
2022-08-05T18:04:04.482Z,3.67
2022-08-05T18:06:41.281Z,3.33
2022-08-05T18:09:18.684Z,3.80
2022-08-05T18:11:52.491Z,4.90
2022-08-05T18:14:20.614Z,5.30
2022-08-05T18:16:51.923Z,4.82
2022-08-05T18:19:22.911Z,5.32
2022-08-05T18:22:09.137Z,5.10
2022-08-05T18:24:41.130Z,5.03
2022-08-05T18:27:18.627Z,5.70
2022-08-05T18:29:53.465Z,5.57
2022-08-05T18:32:28.389Z,5.30
2022-08-05T18:35:01.173Z,4.97
2022-08-05T18:37:34.717Z,5.57
2022-08-05T18:40:34.365Z,5.85
2022-08-05T18:43:00.375Z,5.28
2022-08-05T18:45:40.884Z,5.68
2022-08-05T18:48:11.018Z,5.25
2022-08-05T18:50:57.280Z,6.07
2022-08-05T18:53:34.769Z,5.90
2022-08-05T18:56:12.414Z,6.45
2022-08-05T18:58:39.497Z,6.30
2022-08-05T19:01:09.639Z,6.97
2022-08-05T19:03:55.224Z,6.75
2022-08-05T19:06:34.372Z,7.80
2022-08-05T19:09:09.358Z,8.20
2022-08-05T19:11:59.607Z,8.98
2022-08-05T19:14:53.329Z,8.52
2022-08-05T19:17:12.937Z,9.35
2022-08-05T19:19:46.931Z,9.60
2022-08-05T19:22:17.123Z,9.43
2022-08-05T19:24:54.546Z,9.57
2022-08-05T19:27:27.750Z,8.70
2022-08-05T19:29:57.182Z,9.40
2022-08-05T19:32:26.216Z,7.13
2022-08-05T19:34:55.907Z,8.63
2022-08-05T19:37:35.331Z,8.93
2022-08-05T19:40:10.988Z,9.48
2022-08-05T19:42:38.811Z,10.00
2022-08-05T19:45:07.016Z,9.98
2022-08-05T19:47:34.947Z,9.20
2022-08-05T19:50:04.951Z,11.85
2022-08-05T19:52:34.197Z,9.52
2022-08-05T19:55:06.970Z,8.55
2022-08-05T19:58:19.646Z,9.55
2022-08-05T20:00:36.359Z,9.00
2022-08-05T20:03:05.274Z,10.27
2022-08-05T20:05:43.280Z,9.52
2022-08-05T20:08:16.441Z,10.38
2022-08-05T20:10:43.205Z,9.93
2022-08-05T20:13:10.891Z,10.57
2022-08-05T20:15:51.646Z,9.98
2022-08-05T20:18:33.721Z,10.50
2022-08-05T20:21:04.814Z,11.77
2022-08-05T20:23:40.384Z,13.25
2022-08-05T20:26:23.297Z,12.27
2022-08-05T20:28:55.949Z,13.07
2022-08-05T20:34:10.534Z,12.40
2022-08-05T20:36:39.145Z,14.07
2022-08-05T20:39:10.340Z,13.68
2022-08-05T20:41:43.946Z,14.48
2022-08-05T20:44:17.422Z,13.88
2022-08-05T20:46:46.939Z,14.80
2022-08-05T20:49:13.952Z,15.75
2022-08-05T20:51:40.561Z,16.05
2022-08-05T20:54:07.227Z,16.10
2022-08-05T20:56:42.446Z,16.83
2022-08-05T20:59:15.915Z,16.75
2022-08-05T21:01:46.253Z,16.20
2022-08-05T21:04:13.617Z,16.25
2022-08-05T21:06:45.279Z,16.60
2022-08-05T21:12:06.568Z,15.90
2022-08-05T21:14:27.596Z,17.20
2022-08-05T21:16:55.063Z,16.40
2022-08-05T21:19:21.593Z,15.07
2022-08-05T21:21:50.429Z,14.80
2022-08-05T21:24:19.744Z,15.20
2022-08-05T21:26:53.285Z,15.40
2022-08-05T21:29:26.344Z,15.10
2022-08-05T21:31:58.389Z,13.77
2022-08-05T21:34:24.965Z,14.32
2022-08-05T21:36:51.690Z,14.77
2022-08-05T21:39:26.733Z,12.30
2022-08-05T21:42:01.817Z,8.07
2022-08-05T21:44:29.331Z,6.32
2022-08-05T21:46:58.266Z,5.45
2022-08-05T21:49:48.485Z,4.90
2022-08-05T21:52:15.992Z,4.05
2022-08-05T21:54:54.833Z,4.03
2022-08-05T21:57:31.466Z,4.10
2022-08-05T22:00:11.306Z,4.07
2022-08-05T22:02:41.531Z,3.60
2022-08-05T22:05:09.255Z,4.10
2022-08-05T22:07:40.248Z,3.72
2022-08-05T22:10:26.512Z,3.53
2022-08-05T22:12:58.782Z,3.20
2022-08-05T22:16:00.918Z,2.90
2022-08-05T22:18:13.325Z,3.33
2022-08-05T22:20:41.646Z,3.00
2022-08-05T22:24:02.539Z,3.22
2022-08-05T22:26:53.659Z,2.75
2022-08-05T22:29:26.239Z,2.70
2022-08-05T22:31:55.154Z,2.70
2022-08-05T22:34:28.665Z,2.70
2022-08-05T22:36:58.430Z,2.83
2022-08-05T22:39:32.542Z,2.55
2022-08-05T22:42:09.591Z,2.90
2022-08-05T22:44:38.771Z,2.55
2022-08-05T22:47:06.030Z,2.78
2022-08-05T22:50:18.504Z,2.17
2022-08-05T22:52:32.293Z,2.28
2022-08-05T22:55:01.734Z,2.20
2022-08-05T22:57:36.167Z,2.83
2022-08-05T23:00:06.147Z,2.20
2022-08-05T23:02:35.281Z,2.30
2022-08-05T23:05:14.436Z,2.60
2022-08-05T23:07:45.010Z,2.55
2022-08-05T23:10:16.191Z,1.80
2022-08-05T23:12:47.924Z,2.40
2022-08-05T23:15:18.989Z,1.63
2022-08-05T23:18:00.761Z,2.13
2022-08-05T23:20:29.754Z,2.10
2022-08-05T23:22:56.619Z,2.40
2022-08-05T23:25:52.713Z,1.65
2022-08-05T23:28:12.365Z,2.08
2022-08-05T23:30:39.992Z,2.08
2022-08-05T23:33:16.513Z,1.92
2022-08-05T23:35:55.824Z,2.28
2022-08-05T23:38:24.199Z,1.80
2022-08-05T23:40:52.854Z,1.80
2022-08-05T23:43:24.841Z,1.75
2022-08-05T23:46:03.484Z,2.00
2022-08-05T23:48:30.017Z,1.85
2022-08-05T23:50:56.516Z,2.25
2022-08-05T23:53:28.571Z,2.42
2022-08-05T23:56:11.760Z,2.10
2022-08-05T23:58:38.521Z,2.10
